createdAt,value
2019-02-07T00:01:12.475Z,97639.08
2019-02-07T00:04:19.436Z,97643.03
2019-02-07T00:07:25.965Z,97632.30
2019-02-07T00:10:32.544Z,97627.73
2019-02-07T00:13:39.773Z,97617.47
2019-02-07T00:16:46.705Z,97607.40
2019-02-07T00:19:53.405Z,97598.56
2019-02-07T00:22:59.490Z,97588.33
2019-02-07T00:26:06.242Z,97585.97
2019-02-07T00:29:12.853Z,97593.33
2019-02-07T00:32:19.456Z,97575.19
2019-02-07T00:35:26.047Z,97569.23
2019-02-07T00:38:32.304Z,97558.53
2019-02-07T00:41:41.482Z,97548.42
2019-02-07T00:44:50.742Z,97549.61
2019-02-07T00:47:56.317Z,97540.92
2019-02-07T00:51:02.752Z,97539.02
2019-02-07T00:54:09.243Z,97538.89
2019-02-07T00:57:15.754Z,97545.59
2019-02-07T01:00:23.465Z,97535.77
2019-02-07T01:03:29.928Z,97537.55
2019-02-07T01:06:37.225Z,97529.39
2019-02-07T01:09:44.018Z,97527.80
2019-02-07T01:12:51.106Z,97527.42
2019-02-07T01:15:57.853Z,97518.38
2019-02-07T01:19:05.752Z,97514.74
2019-02-07T01:22:12.884Z,97507.13
2019-02-07T01:25:20.761Z,97497.24
2019-02-07T01:28:27.602Z,97493.57
2019-02-07T01:31:34.828Z,97493.13
2019-02-07T01:34:41.264Z,97483.69
2019-02-07T01:37:47.999Z,97475.01
2019-02-07T01:40:54.628Z,97466.39
2019-02-07T01:44:01.177Z,97458.44
2019-02-07T01:47:07.820Z,97454.83
2019-02-07T01:50:16.075Z,97457.34
2019-02-07T01:53:22.683Z,97449.36
2019-02-07T01:56:29.075Z,97450.61
2019-02-07T01:59:35.347Z,97436.33
2019-02-07T02:02:42.194Z,97439.87
2019-02-07T02:05:48.692Z,97428.70
2019-02-07T02:08:55.059Z,97426.42
2019-02-07T02:12:01.541Z,97425.67
2019-02-07T02:15:08.868Z,97424.19
2019-02-07T02:18:15.537Z,97424.51
2019-02-07T02:21:22.149Z,97415.40
2019-02-07T02:24:28.702Z,97406.72
2019-02-07T02:27:35.725Z,97406.51
2019-02-07T02:30:42.234Z,97400.66
2019-02-07T02:33:49.409Z,97395.70
2019-02-07T02:36:56.108Z,97384.48
2019-02-07T02:40:02.471Z,97396.78
2019-02-07T02:43:09.930Z,97381.32
2019-02-07T02:46:16.462Z,97381.83
2019-02-07T02:49:22.962Z,97380.47
2019-02-07T02:52:29.715Z,97373.72
2019-02-07T02:55:42.248Z,97365.72
2019-02-07T02:58:48.943Z,97365.17
2019-02-07T03:02:05.376Z,97363.61
2019-02-07T03:05:30.822Z,97357.48
2019-02-07T03:09:06.949Z,97354.09
2019-02-07T03:12:43.876Z,97356.80
2019-02-07T03:16:15.356Z,97352.08
2019-02-07T03:19:59.849Z,97343.88
2019-02-07T03:23:34.146Z,97338.92
2019-02-07T03:26:59.660Z,97334.38
2019-02-07T03:30:29.753Z,97323.38
2019-02-07T03:34:08.453Z,97319.21
2019-02-07T03:37:42.886Z,97322.04
2019-02-07T03:41:06.825Z,97310.80
2019-02-07T03:44:31.199Z,97309.11
2019-02-07T03:47:55.409Z,97297.03
2019-02-07T03:51:19.926Z,97284.88
2019-02-07T03:54:51.964Z,97276.17
2019-02-07T03:58:26.166Z,97270.36
2019-02-07T04:01:53.350Z,97268.48
2019-02-07T04:05:17.452Z,97268.14
2019-02-07T04:08:41.565Z,97275.26
2019-02-07T04:12:15.885Z,97269.44
2019-02-07T04:15:56.421Z,97264.17
2019-02-07T04:19:20.645Z,97263.98
2019-02-07T04:22:40.917Z,97255.84
2019-02-07T04:26:05.332Z,97242.50
2019-02-07T04:29:29.560Z,97239.06
2019-02-07T04:33:00.998Z,97229.78
2019-02-07T04:36:45.480Z,97230.92
2019-02-07T04:40:19.104Z,97226.77
2019-02-07T04:43:56.872Z,97207.92
2019-02-07T04:47:28.278Z,97200.93
2019-02-07T04:50:58.855Z,97193.44
2019-02-07T04:54:24.781Z,97177.06
2019-02-07T04:57:49.036Z,97187.09
2019-02-07T05:01:06.013Z,97180.42
2019-02-07T05:04:20.318Z,97166.31
2019-02-07T05:07:46.481Z,97171.17
2019-02-07T05:11:29.106Z,97150.39
2019-02-07T05:14:53.342Z,97145.77
2019-02-07T05:18:30.630Z,97123.42
2019-02-07T05:21:55.165Z,97119.05
2019-02-07T05:25:32.723Z,97107.08
2019-02-07T05:28:56.623Z,97117.38
2019-02-07T05:32:15.515Z,97118.74
2019-02-07T05:35:48.311Z,97117.91
2019-02-07T05:39:14.085Z,97107.67
2019-02-07T05:42:38.151Z,97102.87
2019-02-07T05:46:02.645Z,97094.93
2019-02-07T05:49:30.373Z,97088.02
2019-02-07T05:53:05.258Z,97072.71
2019-02-07T05:56:28.793Z,97078.02
2019-02-07T06:00:00.455Z,97081.44
2019-02-07T06:03:29.745Z,97093.34
2019-02-07T06:06:54.295Z,97089.37
2019-02-07T06:10:30.894Z,97088.34
2019-02-07T06:13:55.216Z,97092.97
2019-02-07T06:17:19.192Z,97090.02
2019-02-07T06:20:32.609Z,97092.34
2019-02-07T06:23:58.893Z,97095.50
2019-02-07T06:27:34.337Z,97100.67
2019-02-07T06:30:59.777Z,97113.57
2019-02-07T06:34:29.001Z,97104.56
2019-02-07T06:37:49.069Z,97098.94
2019-02-07T06:41:10.449Z,97097.56
2019-02-07T06:44:36.094Z,97096.17
2019-02-07T06:48:19.599Z,97102.14
2019-02-07T06:51:53.700Z,97111.25
2019-02-07T06:55:17.737Z,97113.34
2019-02-07T06:58:37.419Z,97109.20
2019-02-07T07:02:05.309Z,97111.45
2019-02-07T07:05:46.266Z,97110.36
2019-02-07T07:09:18.091Z,97117.36
2019-02-07T07:12:42.891Z,97107.95
2019-02-07T07:16:06.993Z,97103.13
2019-02-07T07:19:31.518Z,97093.78
2019-02-07T07:23:15.285Z,97084.64
2019-02-07T07:26:39.265Z,97074.17
2019-02-07T07:30:04.769Z,97074.02
2019-02-07T07:33:40.012Z,97069.84
2019-02-07T07:37:11.641Z,97057.58
2019-02-07T07:40:35.377Z,97048.84
2019-02-07T07:44:10.216Z,97056.97
2019-02-07T07:47:39.011Z,97059.59
2019-02-07T07:51:13.721Z,97060.21
2019-02-07T07:54:39.197Z,97056.84
2019-02-07T07:58:10.732Z,97059.42
2019-02-07T08:01:36.454Z,97066.94
2019-02-07T08:04:58.336Z,97063.25
2019-02-07T08:08:30.245Z,97058.19
2019-02-07T08:11:53.084Z,97062.34
2019-02-07T08:15:17.194Z,97064.81
2019-02-07T08:18:49.211Z,97061.50
2019-02-07T08:22:08.115Z,97060.97
2019-02-07T08:25:42.778Z,97054.80
2019-02-07T08:29:08.070Z,97038.94
2019-02-07T08:32:43.100Z,97049.67
2019-02-07T08:36:24.249Z,97036.52
2019-02-07T08:39:39.069Z,97039.03
2019-02-07T08:43:03.558Z,97035.05
2019-02-07T08:46:28.963Z,97016.30
2019-02-07T08:49:58.178Z,97002.08
2019-02-07T08:53:22.892Z,96990.56
2019-02-07T08:57:00.580Z,96993.03
2019-02-07T09:00:32.625Z,96989.48
2019-02-07T09:04:13.559Z,96980.89
2019-02-07T09:07:51.682Z,96977.57
2019-02-07T09:11:22.883Z,96970.84
2019-02-07T09:14:42.477Z,96972.39
2019-02-07T09:18:13.426Z,96963.98
2019-02-07T09:21:38.014Z,96960.92
2019-02-07T09:25:06.287Z,96961.69
2019-02-07T09:28:50.071Z,96967.02
2019-02-07T09:32:10.523Z,96962.27
2019-02-07T09:35:48.431Z,96954.50
2019-02-07T09:39:14.393Z,96950.00
2019-02-07T09:42:38.302Z,96949.56
2019-02-07T09:46:06.870Z,96968.95
2019-02-07T09:49:35.077Z,96962.80
2019-02-07T09:53:01.530Z,96957.05
2019-02-07T09:56:33.193Z,96965.70
2019-02-07T09:59:58.279Z,96957.67
2019-02-07T10:03:14.473Z,96955.94
2019-02-07T10:06:49.053Z,96971.00
2019-02-07T10:10:21.586Z,96964.92
2019-02-07T10:13:37.572Z,96959.73
2019-02-07T10:17:06.126Z,96950.70
2019-02-07T10:20:33.901Z,96945.56
2019-02-07T10:23:48.154Z,96941.83
2019-02-07T10:27:16.325Z,96939.18
2019-02-07T10:30:51.470Z,96958.34
2019-02-07T10:34:36.557Z,96941.88
2019-02-07T10:38:02.599Z,96925.58
2019-02-07T10:41:35.406Z,96918.45
2019-02-07T10:45:06.875Z,96928.57
2019-02-07T10:48:48.011Z,96917.81
2019-02-07T10:52:13.493Z,96913.50
2019-02-07T10:55:54.092Z,96907.18
2019-02-07T10:59:19.284Z,96907.41
2019-02-07T11:03:00.225Z,96907.17
2019-02-07T11:06:31.786Z,96908.58
2019-02-07T11:10:00.280Z,96911.94
2019-02-07T11:13:29.502Z,96922.60
2019-02-07T11:16:54.723Z,96922.03
2019-02-07T11:20:24.004Z,96916.38
2019-02-07T11:23:53.222Z,96909.08
2019-02-07T11:27:21.413Z,96912.20
2019-02-07T11:31:01.918Z,96917.52
2019-02-07T11:34:33.432Z,96912.11
2019-02-07T11:37:56.683Z,96914.74
2019-02-07T11:41:23.544Z,96909.91
2019-02-07T11:44:54.226Z,96908.38
2019-02-07T11:48:18.982Z,96917.41
2019-02-07T11:51:53.435Z,96922.54
2019-02-07T11:55:26.097Z,96921.06
2019-02-07T11:58:51.341Z,96917.72
2019-02-07T12:02:23.751Z,96926.62
2019-02-07T12:05:55.373Z,96925.34
2019-02-07T12:09:21.202Z,96936.83
2019-02-07T12:12:50.013Z,96938.34
2019-02-07T12:16:04.720Z,96928.98
2019-02-07T12:19:42.035Z,96928.53
2019-02-07T12:23:19.394Z,96941.73
2019-02-07T12:26:53.939Z,96944.27
2019-02-07T12:30:18.939Z,96938.00
2019-02-07T12:33:59.706Z,96941.33
2019-02-07T12:37:23.827Z,96942.22
2019-02-07T12:40:53.169Z,96948.12
2019-02-07T12:44:23.317Z,96943.63
2019-02-07T12:47:59.518Z,96939.91
2019-02-07T12:51:29.743Z,96928.06
2019-02-07T12:54:48.799Z,96944.20
2019-02-07T12:58:05.573Z,96938.41
2019-02-07T13:01:41.931Z,96937.46
2019-02-07T13:05:06.868Z,96934.54
2019-02-07T13:08:33.220Z,96924.63
2019-02-07T13:12:02.475Z,96923.66
2019-02-07T13:15:32.228Z,96933.52
2019-02-07T13:18:54.946Z,96935.14
2019-02-07T13:22:15.532Z,96937.91
2019-02-07T13:25:48.061Z,96933.20
2019-02-07T13:29:17.264Z,96928.03
2019-02-07T13:32:45.659Z,96938.77
2019-02-07T13:36:05.748Z,96939.36
2019-02-07T13:39:27.132Z,96951.97
2019-02-07T13:42:47.242Z,96942.17
2019-02-07T13:46:08.018Z,96946.47
2019-02-07T13:49:32.311Z,96946.47
2019-02-07T13:53:07.070Z,96952.71
2019-02-07T13:56:37.998Z,96950.09
2019-02-07T14:00:09.052Z,96966.92
2019-02-07T14:03:41.776Z,96977.34
2019-02-07T14:07:05.912Z,96980.97
2019-02-07T14:10:34.894Z,96984.03
2019-02-07T14:14:09.092Z,96983.81
2019-02-07T14:17:34.504Z,96984.03
2019-02-07T14:21:10.344Z,96987.43
2019-02-07T14:24:34.504Z,96992.69
2019-02-07T14:27:51.887Z,96990.95
2019-02-07T14:31:12.628Z,97007.11
2019-02-07T14:34:45.561Z,96996.45
2019-02-07T14:38:18.893Z,96998.94
2019-02-07T14:41:56.445Z,97004.09
2019-02-07T14:45:19.951Z,97013.50
2019-02-07T14:48:29.377Z,97015.78
2019-02-07T14:51:45.664Z,97014.25
2019-02-07T14:54:57.695Z,97006.44
2019-02-07T14:58:08.588Z,97015.46
2019-02-07T15:01:20.012Z,97019.80
2019-02-07T15:04:27.055Z,97005.65
2019-02-07T15:07:33.847Z,97013.76
2019-02-07T15:10:40.640Z,97013.76
2019-02-07T15:13:47.137Z,97029.45
2019-02-07T15:16:53.462Z,97033.43
2019-02-07T15:20:01.004Z,97041.91
2019-02-07T15:23:07.893Z,97040.54
2019-02-07T15:26:14.501Z,97038.52
2019-02-07T15:29:21.741Z,97039.34
2019-02-07T15:32:28.411Z,97049.86
2019-02-07T15:35:38.045Z,97052.53
2019-02-07T15:38:44.924Z,97055.90
2019-02-07T15:41:52.499Z,97044.30
2019-02-07T15:45:00.405Z,97042.54
2019-02-07T15:48:07.246Z,97049.55
2019-02-07T15:51:14.399Z,97052.97
2019-02-07T15:54:21.173Z,97053.14
2019-02-07T15:57:27.767Z,97065.09
2019-02-07T16:00:49.539Z,97060.69
2019-02-07T16:04:01.504Z,97056.45
2019-02-07T16:07:07.883Z,97061.44
2019-02-07T16:10:16.022Z,97068.05
2019-02-07T16:13:23.231Z,97057.49
2019-02-07T16:16:31.072Z,97065.77
2019-02-07T16:19:38.319Z,97074.73
2019-02-07T16:22:45.667Z,97068.79
2019-02-07T16:25:52.330Z,97061.90
2019-02-07T16:29:01.503Z,97072.31
2019-02-07T16:32:09.007Z,97071.19
2019-02-07T16:35:17.497Z,97064.58
2019-02-07T16:38:24.390Z,97063.60
2019-02-07T16:41:32.728Z,97062.84
2019-02-07T16:44:40.272Z,97058.23
2019-02-07T16:47:47.551Z,97051.52
2019-02-07T16:51:00.276Z,97069.35
2019-02-07T16:54:04.245Z,97060.16
2019-02-07T16:57:13.179Z,97066.15
2019-02-07T17:00:21.880Z,97064.47
2019-02-07T17:03:29.419Z,97060.16
2019-02-07T17:06:37.115Z,97059.51
2019-02-07T17:09:45.527Z,97047.11
2019-02-07T17:12:53.087Z,97044.51
2019-02-07T17:16:03.076Z,97049.57
2019-02-07T17:19:15.905Z,97050.00
2019-02-07T17:22:28.441Z,97049.52
2019-02-07T17:25:35.237Z,97054.33
2019-02-07T17:28:42.559Z,97055.31
2019-02-07T17:31:50.524Z,97066.23
2019-02-07T17:34:57.918Z,97073.03
2019-02-07T17:38:05.185Z,97067.36
2019-02-07T17:41:14.042Z,97076.13
2019-02-07T17:44:21.653Z,97081.45
2019-02-07T17:47:28.248Z,97104.21
2019-02-07T17:50:35.829Z,97094.69
2019-02-07T17:53:43.593Z,97097.06
2019-02-07T17:56:51.027Z,97097.92
2019-02-07T18:00:01.190Z,97110.25
2019-02-07T18:03:09.549Z,97117.70
2019-02-07T18:06:16.166Z,97124.98
2019-02-07T18:09:23.271Z,97136.19
2019-02-07T18:12:31.020Z,97135.49
2019-02-07T18:15:37.763Z,97145.22
2019-02-07T18:18:45.115Z,97146.47
2019-02-07T18:21:53.875Z,97154.20
2019-02-07T18:25:01.224Z,97149.31
2019-02-07T18:28:11.261Z,97152.84
2019-02-07T18:31:20.276Z,97158.66
2019-02-07T18:34:27.995Z,97157.56
2019-02-07T18:37:35.216Z,97160.95
2019-02-07T18:40:43.046Z,97159.09
2019-02-07T18:43:50.063Z,97164.58
2019-02-07T18:46:57.552Z,97148.12
2019-02-07T18:50:06.121Z,97157.06
2019-02-07T18:53:13.386Z,97164.38
2019-02-07T18:56:20.624Z,97160.19
2019-02-07T18:59:27.910Z,97167.86
2019-02-07T19:02:34.964Z,97168.66
2019-02-07T19:05:41.873Z,97165.34
2019-02-07T19:08:48.504Z,97164.32
2019-02-07T19:11:56.261Z,97164.66
2019-02-07T19:15:03.435Z,97169.81
2019-02-07T19:18:12.714Z,97166.89
2019-02-07T19:21:20.181Z,97166.14
2019-02-07T19:24:27.163Z,97162.60
2019-02-07T19:27:34.169Z,97162.98
2019-02-07T19:30:41.707Z,97162.74
2019-02-07T19:33:48.666Z,97164.13
2019-02-07T19:36:56.215Z,97155.52
2019-02-07T19:40:03.647Z,97155.44
2019-02-07T19:43:10.207Z,97158.26
2019-02-07T19:46:16.911Z,97162.55
2019-02-07T19:49:25.039Z,97173.23
2019-02-07T19:52:31.802Z,97184.25
2019-02-07T19:55:39.371Z,97194.63
2019-02-07T19:58:47.462Z,97196.64
2019-02-07T20:01:54.524Z,97201.44
2019-02-07T20:05:01.421Z,97206.13
2019-02-07T20:08:07.898Z,97212.18
2019-02-07T20:11:16.168Z,97219.07
2019-02-07T20:14:22.998Z,97230.80
2019-02-07T20:17:30.005Z,97235.70
2019-02-07T20:20:36.767Z,97229.76
2019-02-07T20:23:44.796Z,97243.23
2019-02-07T20:26:52.831Z,97241.22
2019-02-07T20:29:59.103Z,97247.60
2019-02-07T20:33:07.285Z,97244.48
2019-02-07T20:36:13.959Z,97242.05
2019-02-07T20:39:20.710Z,97242.59
2019-02-07T20:42:28.167Z,97232.77
2019-02-07T20:45:34.774Z,97247.33
2019-02-07T20:48:41.414Z,97239.20
2019-02-07T20:51:48.615Z,97233.32
2019-02-07T20:54:54.954Z,97234.84
2019-02-07T20:58:01.395Z,97241.20
2019-02-07T21:01:07.940Z,97248.34
2019-02-07T21:04:15.540Z,97254.81
2019-02-07T21:07:22.618Z,97255.66
2019-02-07T21:10:30.227Z,97247.25
2019-02-07T21:13:38.966Z,97248.90
2019-02-07T21:16:45.762Z,97250.31
2019-02-07T21:19:52.632Z,97258.02
2019-02-07T21:23:01.262Z,97259.58
2019-02-07T21:26:08.667Z,97275.84
2019-02-07T21:29:17.928Z,97271.66
2019-02-07T21:32:25.527Z,97276.74
2019-02-07T21:35:33.013Z,97271.66
2019-02-07T21:38:39.825Z,97271.66
2019-02-07T21:41:47.135Z,97266.45
2019-02-07T21:44:53.772Z,97263.54
2019-02-07T21:48:01.569Z,97260.52
2019-02-07T21:51:08.994Z,97268.82
2019-02-07T21:54:16.016Z,97269.52
2019-02-07T21:57:24.020Z,97269.89
2019-02-07T22:00:33.228Z,97269.73
2019-02-07T22:03:40.075Z,97276.12
2019-02-07T22:06:46.864Z,97275.19
2019-02-07T22:09:53.845Z,97279.25
2019-02-07T22:13:01.542Z,97279.25
2019-02-07T22:16:08.715Z,97281.42
2019-02-07T22:19:15.937Z,97283.25
2019-02-07T22:22:23.157Z,97289.45
2019-02-07T22:25:29.818Z,97305.29
2019-02-07T22:28:36.587Z,97306.69
2019-02-07T22:31:43.971Z,97307.75
2019-02-07T22:34:50.411Z,97312.73
2019-02-07T22:37:57.278Z,97307.33
2019-02-07T22:41:04.073Z,97313.79
2019-02-07T22:44:10.623Z,97317.10
2019-02-07T22:47:17.670Z,97305.23
2019-02-07T22:50:25.977Z,97301.70
2019-02-07T22:53:32.451Z,97310.63
2019-02-07T22:56:45.262Z,97317.91
2019-02-07T22:59:47.752Z,97318.84
2019-02-07T23:02:54.707Z,97331.06
2019-02-07T23:06:01.439Z,97323.97
2019-02-07T23:09:11.389Z,97333.09
2019-02-07T23:12:18.817Z,97325.73
2019-02-07T23:15:25.426Z,97325.70
2019-02-07T23:18:32.146Z,97328.70
2019-02-07T23:21:39.734Z,97325.77
2019-02-07T23:24:46.366Z,97320.59
2019-02-07T23:27:54.013Z,97318.13
2019-02-07T23:31:00.663Z,97314.95
2019-02-07T23:34:08.085Z,97322.69
2019-02-07T23:37:14.435Z,97320.48
2019-02-07T23:40:21.080Z,97322.42
2019-02-07T23:43:27.963Z,97316.33
2019-02-07T23:46:34.929Z,97312.97
2019-02-07T23:49:41.451Z,97323.99
2019-02-07T23:52:48.483Z,97324.22
2019-02-07T23:55:55.319Z,97320.16
2019-02-07T23:59:01.786Z,97334.05
